createdAt,value
2023-04-16T00:00:53.766Z,43.40
2023-04-16T00:03:21.535Z,43.67
2023-04-16T00:05:49.225Z,44.00
2023-04-16T00:08:17.011Z,40.20
2023-04-16T00:10:45.876Z,40.47
2023-04-16T00:13:13.394Z,45.22
2023-04-16T00:15:40.884Z,43.95
2023-04-16T00:18:08.354Z,43.50
2023-04-16T00:20:35.840Z,45.63
2023-04-16T00:23:03.482Z,46.50
2023-04-16T00:25:31.283Z,52.33
2023-04-16T00:28:00.116Z,47.83
2023-04-16T00:30:27.711Z,47.67
2023-04-16T00:32:55.185Z,48.00
2023-04-16T00:35:22.725Z,42.05
2023-04-16T00:37:50.300Z,49.97
2023-04-16T00:40:17.851Z,41.30
2023-04-16T00:42:45.611Z,55.78
2023-04-16T00:45:14.520Z,53.03
2023-04-16T00:47:42.103Z,46.83
2023-04-16T00:50:10.118Z,56.08
2023-04-16T00:52:38.592Z,48.15
2023-04-16T00:55:07.134Z,46.80
2023-04-16T00:57:34.664Z,55.80
2023-04-16T01:00:02.272Z,48.75
2023-04-16T01:02:31.255Z,45.58
2023-04-16T01:04:58.845Z,46.83
2023-04-16T01:07:26.543Z,51.85
2023-04-16T01:09:54.084Z,59.88
2023-04-16T01:12:21.575Z,44.78
2023-04-16T01:14:49.414Z,45.25
2023-04-16T01:17:17.072Z,48.10
2023-04-16T01:19:45.897Z,45.05
2023-04-16T01:22:14.876Z,45.00
2023-04-16T01:24:42.415Z,43.80
2023-04-16T01:27:09.919Z,46.38
2023-04-16T01:29:37.423Z,45.63
2023-04-16T01:32:05.000Z,45.45
2023-04-16T01:34:32.599Z,54.15
2023-04-16T01:37:00.167Z,53.78
2023-04-16T01:39:29.007Z,59.92
2023-04-16T01:41:57.169Z,45.30
2023-04-16T01:44:25.575Z,48.05
2023-04-16T01:46:53.146Z,50.08
2023-04-16T01:49:20.658Z,46.72
2023-04-16T01:51:48.730Z,48.55
2023-04-16T01:54:16.337Z,48.35
2023-04-16T01:56:45.443Z,52.13
2023-04-16T01:59:13.440Z,51.38
2023-04-16T02:01:42.035Z,55.83
2023-04-16T02:04:09.614Z,52.67
2023-04-16T02:06:37.321Z,51.78
2023-04-16T02:09:04.913Z,58.92
2023-04-16T02:11:32.397Z,48.92
2023-04-16T02:14:01.314Z,53.15
2023-04-16T02:16:28.831Z,46.25
2023-04-16T02:18:56.355Z,48.83
2023-04-16T02:21:23.917Z,45.30
2023-04-16T02:23:52.006Z,52.72
2023-04-16T02:26:19.663Z,53.20
2023-04-16T02:28:47.198Z,55.63
2023-04-16T02:31:17.981Z,48.75
2023-04-16T02:33:45.850Z,49.65
2023-04-16T02:36:14.297Z,46.20
2023-04-16T02:38:41.757Z,49.72
2023-04-16T02:41:09.249Z,47.20
2023-04-16T02:43:36.980Z,50.75
2023-04-16T02:46:04.554Z,48.20
2023-04-16T02:48:33.452Z,45.55
2023-04-16T02:51:00.996Z,49.20
2023-04-16T02:53:28.552Z,51.83
2023-04-16T02:55:56.629Z,53.88
2023-04-16T02:58:25.436Z,59.75
2023-04-16T03:00:53.223Z,50.50
2023-04-16T03:03:21.186Z,51.35
2023-04-16T03:05:50.162Z,51.40
2023-04-16T03:08:17.690Z,42.60
2023-04-16T03:10:45.168Z,49.42
2023-04-16T03:13:12.710Z,48.38
2023-04-16T03:15:40.226Z,46.03
2023-04-16T03:18:07.715Z,43.30
2023-04-16T03:20:35.423Z,46.28
2023-04-16T03:23:04.231Z,46.72
2023-04-16T03:25:31.784Z,49.95
2023-04-16T03:27:59.588Z,47.67
2023-04-16T03:30:27.104Z,47.75
2023-04-16T03:32:54.670Z,42.60
2023-04-16T03:35:22.582Z,45.78
2023-04-16T03:37:50.266Z,42.58
2023-04-16T03:40:19.277Z,50.13
2023-04-16T03:42:46.869Z,39.70
2023-04-16T03:45:15.021Z,37.25
2023-04-16T03:47:42.512Z,42.40
2023-04-16T03:50:11.518Z,41.80
2023-04-16T03:52:38.994Z,48.15
2023-04-16T03:55:07.089Z,45.55
2023-04-16T03:57:36.054Z,40.50
2023-04-16T04:00:03.569Z,39.92
2023-04-16T04:02:31.259Z,34.35
2023-04-16T04:05:00.581Z,37.85
2023-04-16T04:07:28.141Z,38.30
2023-04-16T04:09:55.705Z,39.38
2023-04-16T04:12:23.233Z,37.15
2023-04-16T04:14:52.072Z,30.35
2023-04-16T04:17:19.707Z,39.38
2023-04-16T04:20:00.450Z,35.17
2023-04-16T04:22:28.574Z,34.72
2023-04-16T04:24:56.401Z,36.83
2023-04-16T04:27:23.985Z,29.05
2023-04-16T04:29:52.830Z,34.63
2023-04-16T04:32:20.404Z,34.15
2023-04-16T04:34:47.950Z,34.00
2023-04-16T04:37:15.526Z,28.55
2023-04-16T04:39:43.196Z,30.77
2023-04-16T04:42:11.040Z,31.88
2023-04-16T04:44:38.568Z,29.65
2023-04-16T04:47:07.455Z,30.75
2023-04-16T04:49:34.902Z,35.25
2023-04-16T04:52:02.517Z,30.23
2023-04-16T04:54:30.349Z,30.25
2023-04-16T04:56:57.889Z,29.33
2023-04-16T04:59:25.676Z,30.58
2023-04-16T05:01:53.259Z,32.08
2023-04-16T05:04:22.108Z,34.20
2023-04-16T05:06:49.633Z,33.92
2023-04-16T05:09:17.544Z,29.65
2023-04-16T05:11:45.540Z,27.98
2023-04-16T05:14:13.039Z,38.28
2023-04-16T05:16:40.727Z,30.27
2023-04-16T05:19:08.834Z,31.13
2023-04-16T05:21:38.029Z,27.67
2023-04-16T05:24:05.853Z,34.40
2023-04-16T05:26:33.318Z,29.73
2023-04-16T05:29:00.796Z,30.27
2023-04-16T05:31:28.389Z,41.78
2023-04-16T05:33:55.903Z,32.10
2023-04-16T05:36:23.568Z,30.83
2023-04-16T05:38:52.809Z,32.45
2023-04-16T05:41:20.452Z,39.90
2023-04-16T05:43:47.957Z,33.72
2023-04-16T05:46:15.567Z,35.88
2023-04-16T05:48:43.186Z,34.75
2023-04-16T05:51:10.699Z,29.67
2023-04-16T05:53:38.279Z,32.67
2023-04-16T05:56:07.676Z,31.38
2023-04-16T05:58:35.243Z,36.33
2023-04-16T06:01:03.415Z,34.40
2023-04-16T06:03:31.464Z,33.67
2023-04-16T06:05:59.171Z,31.58
2023-04-16T06:08:26.745Z,31.58
2023-04-16T06:10:54.466Z,49.28
2023-04-16T06:13:26.249Z,29.75
2023-04-16T06:15:54.009Z,38.88
2023-04-16T06:18:21.730Z,32.53
2023-04-16T06:20:49.249Z,31.50
2023-04-16T06:23:16.850Z,29.73
2023-04-16T06:25:47.284Z,29.35
2023-04-16T06:28:17.069Z,33.33
2023-04-16T06:30:46.140Z,32.00
2023-04-16T06:33:13.656Z,37.40
2023-04-16T06:35:41.234Z,34.53
2023-04-16T06:38:08.884Z,37.10
2023-04-16T06:40:37.599Z,35.25
2023-04-16T06:43:05.033Z,36.22
2023-04-16T06:45:32.700Z,38.20
2023-04-16T06:48:13.418Z,32.38
2023-04-16T06:50:41.475Z,33.85
2023-04-16T06:53:09.139Z,27.75
2023-04-16T06:55:36.922Z,36.58
2023-04-16T06:58:04.726Z,34.40
2023-04-16T07:00:35.158Z,34.38
2023-04-16T07:03:04.405Z,31.63
2023-04-16T07:05:34.926Z,28.58
2023-04-16T07:08:02.377Z,33.33
2023-04-16T07:10:30.003Z,43.55
2023-04-16T07:12:57.608Z,33.33
2023-04-16T07:15:25.115Z,38.13
2023-04-16T07:17:52.599Z,34.22
2023-04-16T07:20:21.874Z,31.45
2023-04-16T07:22:52.238Z,28.15
2023-04-16T07:25:20.836Z,32.72
2023-04-16T07:27:48.383Z,27.40
2023-04-16T07:30:16.006Z,28.05
2023-04-16T07:32:43.626Z,28.23
2023-04-16T07:35:15.938Z,28.23
2023-04-16T07:37:45.060Z,25.42
2023-04-16T07:40:13.012Z,28.80
2023-04-16T07:42:44.211Z,22.48
2023-04-16T07:45:12.142Z,30.95
2023-04-16T07:47:39.827Z,24.35
2023-04-16T07:50:08.648Z,25.58
2023-04-16T07:52:37.290Z,28.83
2023-04-16T07:55:06.649Z,34.38
2023-04-16T07:57:34.396Z,31.60
2023-04-16T08:00:04.948Z,31.15
2023-04-16T08:02:32.877Z,38.95
2023-04-16T08:05:01.550Z,31.52
2023-04-16T08:07:29.226Z,28.67
2023-04-16T08:09:56.796Z,29.80
2023-04-16T08:12:27.050Z,32.55
2023-04-16T08:14:54.730Z,31.05
2023-04-16T08:17:22.372Z,30.30
2023-04-16T08:19:49.973Z,29.58
2023-04-16T08:22:17.834Z,36.92
2023-04-16T08:24:47.586Z,28.10
2023-04-16T08:27:19.894Z,37.88
2023-04-16T08:29:49.397Z,37.08
2023-04-16T08:32:17.051Z,31.60
2023-04-16T08:34:44.605Z,33.65
2023-04-16T08:37:12.187Z,32.88
2023-04-16T08:39:39.838Z,37.85
2023-04-16T08:42:12.991Z,34.15
2023-04-16T08:44:44.831Z,35.88
2023-04-16T08:47:13.803Z,33.83
2023-04-16T08:49:44.556Z,37.92
2023-04-16T08:52:13.823Z,32.35
2023-04-16T08:54:45.480Z,31.98
2023-04-16T08:57:25.179Z,30.73
2023-04-16T08:59:52.866Z,27.15
2023-04-16T09:02:21.986Z,28.15
2023-04-16T09:04:50.587Z,29.00
2023-04-16T09:07:18.685Z,29.65
2023-04-16T09:09:46.899Z,33.35
2023-04-16T09:12:14.549Z,34.08
2023-04-16T09:14:43.129Z,30.55
2023-04-16T09:17:10.899Z,39.35
2023-04-16T09:19:39.922Z,33.03
2023-04-16T09:22:07.618Z,32.25
2023-04-16T09:24:35.488Z,40.95
2023-04-16T09:27:03.561Z,36.60
2023-04-16T09:29:35.949Z,31.00
2023-04-16T09:32:04.676Z,30.77
2023-04-16T09:34:33.334Z,38.70
2023-04-16T09:39:56.669Z,28.00
2023-04-16T09:42:24.977Z,36.88
2023-04-16T09:44:53.887Z,26.45
2023-04-16T09:47:21.998Z,40.58
2023-04-16T09:49:49.488Z,32.20
2023-04-16T09:52:17.424Z,40.75
2023-04-16T09:54:48.574Z,41.55
2023-04-16T09:57:20.742Z,40.28
2023-04-16T09:59:48.391Z,30.55
2023-04-16T10:02:16.687Z,36.67
2023-04-16T10:04:48.147Z,39.22
2023-04-16T10:07:15.903Z,36.50
2023-04-16T10:09:43.691Z,34.25
2023-04-16T10:12:12.895Z,36.08
2023-04-16T10:14:42.192Z,32.85
2023-04-16T10:17:10.200Z,39.47
2023-04-16T10:19:38.358Z,38.58
2023-04-16T10:22:06.781Z,37.90
2023-04-16T10:24:35.085Z,40.53
2023-04-16T10:27:02.795Z,40.13
2023-04-16T10:29:31.423Z,40.70
2023-04-16T10:32:01.316Z,37.75
2023-04-16T10:34:29.958Z,49.03
2023-04-16T10:36:57.665Z,33.15
2023-04-16T10:39:25.752Z,40.22
2023-04-16T10:42:07.660Z,41.70
2023-04-16T10:44:35.540Z,42.03
2023-04-16T10:47:04.603Z,36.88
2023-04-16T10:49:32.268Z,41.33
2023-04-16T10:52:00.625Z,41.42
2023-04-16T10:54:31.881Z,39.53
2023-04-16T10:57:01.628Z,40.20
2023-04-16T10:59:31.776Z,47.05
2023-04-16T11:02:02.420Z,45.53
2023-04-16T11:04:35.937Z,49.97
2023-04-16T11:07:09.285Z,42.33
2023-04-16T11:09:54.559Z,48.03
2023-04-16T11:12:23.707Z,50.28
2023-04-16T11:14:57.320Z,50.28
2023-04-16T11:17:31.653Z,53.75
2023-04-16T11:20:00.804Z,41.58
2023-04-16T11:22:28.444Z,48.72
2023-04-16T11:24:56.542Z,53.47
2023-04-16T11:27:24.435Z,49.42
2023-04-16T11:29:58.260Z,45.83
2023-04-16T11:32:26.005Z,48.25
2023-04-16T11:34:53.664Z,49.50
2023-04-16T11:37:33.075Z,48.88
2023-04-16T11:40:01.408Z,48.50
2023-04-16T11:42:29.405Z,55.22
2023-04-16T11:45:00.991Z,43.50
2023-04-16T11:47:28.817Z,47.30
2023-04-16T11:49:56.647Z,46.50
2023-04-16T11:52:29.579Z,44.13
2023-04-16T11:54:57.578Z,48.20
2023-04-16T11:57:25.849Z,43.90
2023-04-16T12:00:03.029Z,45.33
2023-04-16T12:02:36.370Z,50.20
2023-04-16T12:05:04.747Z,47.00
2023-04-16T12:07:33.880Z,43.75
2023-04-16T12:10:08.080Z,47.95
2023-04-16T12:12:35.850Z,44.03
2023-04-16T12:15:05.157Z,52.92
2023-04-16T12:17:33.415Z,44.80
2023-04-16T12:20:02.023Z,36.42
2023-04-16T12:22:30.405Z,40.28
2023-04-16T12:25:01.223Z,37.63
2023-04-16T12:27:46.456Z,43.90
2023-04-16T12:30:14.756Z,39.28
2023-04-16T12:32:43.130Z,43.08
2023-04-16T12:35:13.859Z,36.00
2023-04-16T12:37:41.728Z,38.00
2023-04-16T12:40:11.419Z,47.10
2023-04-16T12:42:39.321Z,55.15
2023-04-16T12:45:08.821Z,40.85
2023-04-16T12:47:36.606Z,42.20
2023-04-16T12:50:04.740Z,37.20
2023-04-16T12:52:32.698Z,44.67
2023-04-16T12:55:00.692Z,43.53
2023-04-16T12:57:30.003Z,43.55
2023-04-16T12:59:57.857Z,62.42
2023-04-16T13:02:26.207Z,41.83
2023-04-16T13:04:54.560Z,48.90
2023-04-16T13:07:22.412Z,42.95
2023-04-16T13:09:50.003Z,49.78
2023-04-16T13:12:17.644Z,40.00
2023-04-16T13:14:49.812Z,46.80
2023-04-16T13:17:20.566Z,46.35
2023-04-16T13:19:48.089Z,49.13
2023-04-16T13:22:15.917Z,41.42
2023-04-16T13:24:43.568Z,45.10
2023-04-16T13:27:12.478Z,50.42
2023-04-16T13:29:40.215Z,51.10
2023-04-16T13:32:09.190Z,35.95
2023-04-16T13:34:36.908Z,48.25
2023-04-16T13:37:04.677Z,43.95
2023-04-16T13:39:32.250Z,42.75
2023-04-16T13:42:00.152Z,50.58
2023-04-16T13:44:27.742Z,41.58
2023-04-16T13:46:57.549Z,49.33
2023-04-16T13:49:26.766Z,51.13
2023-04-16T13:51:54.421Z,38.30
2023-04-16T13:54:21.987Z,43.33
2023-04-16T13:56:53.206Z,34.63
2023-04-16T13:59:20.783Z,40.25
2023-04-16T14:01:48.436Z,44.05
2023-04-16T14:04:16.107Z,38.50
2023-04-16T14:06:45.263Z,41.30
2023-04-16T14:09:15.324Z,40.80
2023-04-16T14:11:43.031Z,36.58
2023-04-16T14:14:10.796Z,39.65
2023-04-16T14:16:38.370Z,36.22
2023-04-16T14:19:06.113Z,44.03
2023-04-16T14:21:34.026Z,33.22
2023-04-16T14:24:03.197Z,45.95
2023-04-16T14:26:30.734Z,41.50
2023-04-16T14:28:58.497Z,38.78
2023-04-16T14:31:26.245Z,37.50
2023-04-16T14:33:53.883Z,35.97
2023-04-16T14:36:21.707Z,37.80
2023-04-16T14:38:50.824Z,40.92
2023-04-16T14:41:19.740Z,48.78
2023-04-16T14:43:47.264Z,39.90
2023-04-16T14:46:17.741Z,38.55
2023-04-16T14:48:45.601Z,38.38
2023-04-16T14:51:13.216Z,40.72
2023-04-16T14:53:41.678Z,37.58
2023-04-16T14:56:09.247Z,43.75
2023-04-16T14:58:40.611Z,38.72
2023-04-16T15:01:08.942Z,39.50
2023-04-16T15:03:36.851Z,44.90
2023-04-16T15:06:08.568Z,43.15
2023-04-16T15:08:36.497Z,38.95
2023-04-16T15:11:04.037Z,43.38
2023-04-16T15:13:34.170Z,48.97
2023-04-16T15:16:04.458Z,35.05
2023-04-16T15:18:32.124Z,43.85
2023-04-16T15:20:59.900Z,48.50
2023-04-16T15:23:29.961Z,44.53
2023-04-16T15:25:57.470Z,43.08
2023-04-16T15:28:25.125Z,47.38
2023-04-16T15:30:53.340Z,44.75
2023-04-16T15:33:25.400Z,50.67
2023-04-16T15:35:53.446Z,47.75
2023-04-16T15:38:21.391Z,52.45
2023-04-16T15:40:49.127Z,55.70
2023-04-16T15:43:17.120Z,50.13
2023-04-16T15:45:45.259Z,51.17
2023-04-16T15:48:21.589Z,49.65
2023-04-16T15:50:50.658Z,51.45
2023-04-16T15:53:18.187Z,52.97
2023-04-16T15:55:45.993Z,49.92
2023-04-16T15:58:13.908Z,54.95
2023-04-16T16:00:41.788Z,40.60
2023-04-16T16:03:12.532Z,52.95
2023-04-16T16:05:40.349Z,55.17
2023-04-16T16:08:09.664Z,46.00
2023-04-16T16:10:37.388Z,49.80
2023-04-16T16:13:07.985Z,59.15
2023-04-16T16:15:35.792Z,46.35
2023-04-16T16:18:03.421Z,50.17
2023-04-16T16:20:30.932Z,53.33
2023-04-16T16:22:58.946Z,48.35
2023-04-16T16:25:28.160Z,52.55
2023-04-16T16:27:55.712Z,42.92
2023-04-16T16:30:23.282Z,49.22
2023-04-16T16:32:51.193Z,59.50
2023-04-16T16:35:18.783Z,45.45
2023-04-16T16:37:46.342Z,46.85
2023-04-16T16:40:15.212Z,40.92
2023-04-16T16:42:44.194Z,46.88
2023-04-16T16:45:12.132Z,49.03
2023-04-16T16:47:39.721Z,39.20
2023-04-16T16:50:08.000Z,49.53
2023-04-16T16:52:35.513Z,50.53
2023-04-16T16:55:03.050Z,49.53
2023-04-16T16:57:30.768Z,41.47
2023-04-16T16:59:59.729Z,36.92
2023-04-16T17:02:27.492Z,57.63
2023-04-16T17:04:55.305Z,42.22
2023-04-16T17:07:22.784Z,44.10
2023-04-16T17:09:50.432Z,41.53
2023-04-16T17:12:18.018Z,44.45
2023-04-16T17:14:45.912Z,38.67
2023-04-16T17:17:14.974Z,37.97
2023-04-16T17:19:42.462Z,37.40
2023-04-16T17:22:10.010Z,39.10
2023-04-16T17:24:37.583Z,32.75
2023-04-16T17:27:06.126Z,41.53
2023-04-16T17:29:33.629Z,34.53
2023-04-16T17:32:01.557Z,37.67
2023-04-16T17:34:30.559Z,33.25
2023-04-16T17:36:58.152Z,36.97
2023-04-16T17:39:25.914Z,36.33
2023-04-16T17:41:57.320Z,39.03
2023-04-16T17:44:25.836Z,42.08
2023-04-16T17:46:53.390Z,36.60
2023-04-16T17:49:21.047Z,48.30
2023-04-16T17:51:50.035Z,46.15
2023-04-16T17:54:17.732Z,36.40
2023-04-16T17:56:46.159Z,37.63
2023-04-16T17:59:13.851Z,32.95
2023-04-16T18:01:41.696Z,40.30
2023-04-16T18:04:09.427Z,41.42
2023-04-16T18:06:37.442Z,33.45
2023-04-16T18:09:06.680Z,44.35
2023-04-16T18:11:34.179Z,48.05
2023-04-16T18:14:04.381Z,44.30
2023-04-16T18:16:32.344Z,42.72
2023-04-16T18:19:02.670Z,52.30
2023-04-16T18:21:31.577Z,42.90
2023-04-16T18:24:00.999Z,44.00
2023-04-16T18:26:30.062Z,40.75
2023-04-16T18:28:57.877Z,38.45
2023-04-16T18:31:25.528Z,39.83
2023-04-16T18:33:58.001Z,40.00
2023-04-16T18:36:29.514Z,39.30
2023-04-16T18:39:02.205Z,37.08
2023-04-16T18:41:31.805Z,39.35
2023-04-16T18:43:59.370Z,38.70
2023-04-16T18:46:27.543Z,39.20
2023-04-16T18:48:56.002Z,38.25
2023-04-16T18:51:23.549Z,45.42
2023-04-16T18:53:51.314Z,42.45
2023-04-16T18:56:19.932Z,42.88
2023-04-16T18:58:49.414Z,37.42
2023-04-16T19:01:17.974Z,36.78
2023-04-16T19:03:45.718Z,37.65
2023-04-16T19:06:13.277Z,43.08
2023-04-16T19:08:40.873Z,41.75
2023-04-16T19:11:08.454Z,34.53
2023-04-16T19:13:38.882Z,38.58
2023-04-16T19:16:11.383Z,38.13
2023-04-16T19:18:39.268Z,30.70
2023-04-16T19:21:07.097Z,37.83
2023-04-16T19:23:34.775Z,33.47
2023-04-16T19:26:02.382Z,34.10
2023-04-16T19:28:29.881Z,28.38
2023-04-16T19:30:57.388Z,26.85
2023-04-16T19:33:26.206Z,29.52
2023-04-16T19:35:53.747Z,32.33
2023-04-16T19:38:21.350Z,30.05
2023-04-16T19:40:49.366Z,29.27
2023-04-16T19:43:16.881Z,29.52
2023-04-16T19:45:44.941Z,26.20
2023-04-16T19:48:15.492Z,26.08
2023-04-16T19:50:44.926Z,30.58
2023-04-16T19:53:12.725Z,24.65
2023-04-16T19:55:40.441Z,21.77
2023-04-16T19:58:07.998Z,24.42
2023-04-16T20:00:37.153Z,21.38
2023-04-16T20:03:08.407Z,23.40
2023-04-16T20:05:36.162Z,27.90
2023-04-16T20:08:05.396Z,24.55
2023-04-16T20:10:32.880Z,29.67
2023-04-16T20:13:00.447Z,20.73
2023-04-16T20:15:28.312Z,25.92
2023-04-16T20:17:56.223Z,25.30
2023-04-16T20:20:23.902Z,24.60
2023-04-16T20:22:51.663Z,28.73
2023-04-16T20:25:21.570Z,27.80
2023-04-16T20:27:49.068Z,27.77
2023-04-16T20:30:17.655Z,31.85
2023-04-16T20:32:45.227Z,23.20
2023-04-16T20:35:12.844Z,27.35
2023-04-16T20:37:42.544Z,25.75
2023-04-16T20:40:14.982Z,30.25
2023-04-16T20:42:46.534Z,31.23
2023-04-16T20:45:17.249Z,25.55
2023-04-16T20:47:44.865Z,28.33
2023-04-16T20:50:12.667Z,23.88
2023-04-16T20:52:40.242Z,31.15
2023-04-16T20:55:08.792Z,32.13
2023-04-16T20:57:36.594Z,29.45
2023-04-16T21:00:09.430Z,29.08
2023-04-16T21:02:37.364Z,34.63
2023-04-16T21:05:06.317Z,30.60
2023-04-16T21:07:33.880Z,33.03
2023-04-16T21:10:01.723Z,35.38
2023-04-16T21:12:29.224Z,34.00
2023-04-16T21:14:57.203Z,34.17
2023-04-16T21:17:26.154Z,32.42
2023-04-16T21:19:53.692Z,33.42
2023-04-16T21:22:21.178Z,36.72
2023-04-16T21:24:48.792Z,37.30
2023-04-16T21:27:16.306Z,33.63
2023-04-16T21:29:43.976Z,29.77
2023-04-16T21:32:11.830Z,28.52
2023-04-16T21:34:41.146Z,38.17
2023-04-16T21:37:10.628Z,35.00
2023-04-16T21:39:40.672Z,30.13
2023-04-16T21:42:08.163Z,39.85
2023-04-16T21:44:35.667Z,31.58
2023-04-16T21:47:03.253Z,28.45
2023-04-16T21:49:30.790Z,32.65
2023-04-16T21:51:59.623Z,37.60
2023-04-16T21:54:27.224Z,30.75
2023-04-16T21:56:54.858Z,30.77
2023-04-16T21:59:22.321Z,30.38
2023-04-16T22:01:50.269Z,35.63
2023-04-16T22:04:17.874Z,34.15
2023-04-16T22:06:46.329Z,36.60
2023-04-16T22:09:15.489Z,33.40
2023-04-16T22:11:43.007Z,38.35
2023-04-16T22:14:10.488Z,26.02
2023-04-16T22:16:38.079Z,29.80
2023-04-16T22:19:05.673Z,23.98
2023-04-16T22:21:33.175Z,28.25
2023-04-16T22:24:02.762Z,29.48
2023-04-16T22:26:32.156Z,25.75
2023-04-16T22:28:59.688Z,30.10
2023-04-16T22:31:27.326Z,22.35
2023-04-16T22:33:54.870Z,22.83
2023-04-16T22:36:22.376Z,23.45
2023-04-16T22:38:49.974Z,24.92
2023-04-16T22:41:17.487Z,24.75
2023-04-16T22:43:46.382Z,24.67
2023-04-16T22:46:13.964Z,26.90
2023-04-16T22:48:41.488Z,20.80
2023-04-16T22:51:09.633Z,27.65
2023-04-16T22:53:37.211Z,24.00
2023-04-16T22:56:04.825Z,23.23
2023-04-16T22:58:32.289Z,23.38
2023-04-16T23:01:01.797Z,23.45
2023-04-16T23:03:29.528Z,30.13
2023-04-16T23:05:57.151Z,30.77
2023-04-16T23:08:24.758Z,28.10
2023-04-16T23:10:52.217Z,30.27
2023-04-16T23:13:19.751Z,25.00
2023-04-16T23:15:47.587Z,23.45
2023-04-16T23:18:16.912Z,28.35
2023-04-16T23:20:44.380Z,26.90
2023-04-16T23:23:14.281Z,24.75
2023-04-16T23:25:42.006Z,22.33
2023-04-16T23:28:09.522Z,24.38
2023-04-16T23:30:37.091Z,28.65
2023-04-16T23:33:04.717Z,26.98
2023-04-16T23:35:33.623Z,32.40
2023-04-16T23:38:01.305Z,26.60
2023-04-16T23:40:28.865Z,26.58
2023-04-16T23:42:56.373Z,21.85
2023-04-16T23:45:23.936Z,26.27
2023-04-16T23:47:51.760Z,24.63
2023-04-16T23:50:19.354Z,31.73
2023-04-16T23:52:49.873Z,23.40
2023-04-16T23:55:17.349Z,24.98
2023-04-16T23:57:44.980Z,28.42
